Indianapolis, Iowa
Current Conditions -  °F | °C
As of 10:15 PM on Wednesday 26 Nov 2014 (Local Time) from KOOA Reporting Station
Haze Haze  
Wind Chill: 19°   Ceiling: 900
Heat Index: 27°   Visibility: 3mi
Dew Point: 25°   Wind: 7mph
Humidity: 94%   Direction: 350°N
Pressure: 30.29"   Gusts: NA
Location:  41.3798°N, 92.3541°W
Report Text: KOOA 270415Z AUTO 35006KT 3SM BR BKN009 BKN013 OVC018 M03/M04 A3029 RMK AO2 T10281037
Loading
Personal Weather Stations






























Interactive Weather Map New forecast layout! Learn more

10-Day Weather Forecast

Advertisements
Track Severe Weather on mobile